createdAt,value
2022-08-11T00:02:55.071Z,12.11
2022-08-11T00:11:20.144Z,12.09
2022-08-11T00:20:14.239Z,12.14
2022-08-11T00:28:35.154Z,12.06
2022-08-11T00:37:08.997Z,12.01
2022-08-11T00:45:39.819Z,12.00
2022-08-11T00:54:40.405Z,12.00
2022-08-11T01:03:44.919Z,11.99
2022-08-11T01:12:29.549Z,11.99
2022-08-11T01:21:25.947Z,12.00
2022-08-11T01:30:13.980Z,11.92
2022-08-11T01:39:07.175Z,11.95
2022-08-11T01:47:59.148Z,11.93
2022-08-11T01:56:21.931Z,11.91
2022-08-11T02:04:59.681Z,11.90
2022-08-11T02:13:42.136Z,11.82
2022-08-11T02:22:35.828Z,11.79
2022-08-11T02:32:23.801Z,11.84
2022-08-11T02:40:22.796Z,11.86
2022-08-11T02:49:16.931Z,11.84
2022-08-11T02:58:03.856Z,11.93
2022-08-11T03:06:39.592Z,11.98
2022-08-11T03:15:30.771Z,11.98
2022-08-11T03:24:06.954Z,12.01
2022-08-11T03:32:38.027Z,12.10
2022-08-11T03:42:03.649Z,12.15
2022-08-11T03:50:41.566Z,12.26
2022-08-11T03:59:22.808Z,12.41
2022-08-11T04:08:12.947Z,12.51
2022-08-11T04:16:48.152Z,13.02
2022-08-11T04:25:10.911Z,13.50
2022-08-11T04:34:08.092Z,13.80
2022-08-11T04:43:14.679Z,13.99
2022-08-11T04:52:21.355Z,14.46
2022-08-11T05:01:08.786Z,15.29
2022-08-11T05:09:54.432Z,16.09
2022-08-11T05:18:43.038Z,16.81
2022-08-11T05:27:28.377Z,17.55
2022-08-11T05:36:07.993Z,18.16
2022-08-11T05:44:50.339Z,18.57
2022-08-11T05:53:39.440Z,19.45
2022-08-11T06:02:09.406Z,20.06
2022-08-11T06:10:35.057Z,20.52
2022-08-11T06:18:59.288Z,20.99
2022-08-11T06:27:27.139Z,21.30
2022-08-11T06:36:21.572Z,21.89
2022-08-11T06:45:01.611Z,22.24
2022-08-11T06:53:25.385Z,22.48
2022-08-11T07:01:55.042Z,22.57
2022-08-11T07:10:46.555Z,22.92
2022-08-11T07:19:31.185Z,23.14
2022-08-11T07:28:21.900Z,22.94
2022-08-11T07:37:18.074Z,23.22
2022-08-11T07:46:05.336Z,23.01
2022-08-11T07:54:33.397Z,23.10
2022-08-11T08:03:18.454Z,23.65
2022-08-11T08:12:03.641Z,24.08
2022-08-11T08:20:45.832Z,24.28
2022-08-11T08:29:28.579Z,23.97
2022-08-11T08:37:52.839Z,23.54
2022-08-11T08:46:17.833Z,23.75
2022-08-11T08:54:43.441Z,23.37
2022-08-11T09:03:29.549Z,23.11
2022-08-11T09:11:51.212Z,22.83
2022-08-11T09:20:26.051Z,22.80
2022-08-11T09:28:50.440Z,22.80
2022-08-11T09:37:54.419Z,22.77
2022-08-11T09:46:16.752Z,23.00
2022-08-11T09:54:48.199Z,22.74
2022-08-11T10:03:18.521Z,22.55
2022-08-11T10:11:43.156Z,22.51
2022-08-11T10:20:25.656Z,22.94
2022-08-11T10:29:11.953Z,22.92
2022-08-11T10:38:15.965Z,22.72
2022-08-11T10:46:40.244Z,22.54
2022-08-11T10:55:22.823Z,22.29
2022-08-11T11:03:46.812Z,22.28
2022-08-11T11:12:34.924Z,22.85
2022-08-11T11:21:04.722Z,23.12
2022-08-11T11:29:40.639Z,23.35
2022-08-11T11:38:14.006Z,24.33
2022-08-11T11:46:38.782Z,24.71
2022-08-11T11:55:04.785Z,24.15
2022-08-11T12:03:28.194Z,23.58
2022-08-11T12:12:09.991Z,23.85
2022-08-11T12:20:34.412Z,24.55
2022-08-11T12:29:01.194Z,24.69
2022-08-11T12:37:35.338Z,22.58
2022-08-11T12:46:01.066Z,20.23
2022-08-11T12:54:35.410Z,19.29
2022-08-11T13:03:18.599Z,19.16
2022-08-11T13:12:00.961Z,19.61
2022-08-11T13:20:25.674Z,20.28
2022-08-11T13:28:48.712Z,20.83
2022-08-11T13:37:14.730Z,21.01
2022-08-11T13:45:38.497Z,21.40
2022-08-11T13:54:12.203Z,22.05
2022-08-11T14:02:36.735Z,22.24
2022-08-11T14:12:22.704Z,22.18
2022-08-11T14:20:38.524Z,22.38
2022-08-11T14:29:08.502Z,22.68
2022-08-11T14:37:31.874Z,23.14
2022-08-11T14:46:16.065Z,23.35
2022-08-11T14:55:00.683Z,22.01
2022-08-11T15:03:28.257Z,20.53
2022-08-11T15:12:32.861Z,19.97
2022-08-11T15:21:15.382Z,19.77
2022-08-11T15:30:00.412Z,19.63
2022-08-11T15:38:25.708Z,19.55
2022-08-11T15:46:54.309Z,19.68
2022-08-11T15:55:21.763Z,19.99
2022-08-11T16:04:15.454Z,20.02
2022-08-11T16:13:03.439Z,19.52
2022-08-11T16:21:36.181Z,18.76
2022-08-11T16:30:01.241Z,18.31
2022-08-11T16:38:36.386Z,18.22
2022-08-11T16:47:00.979Z,18.25
2022-08-11T16:55:51.984Z,18.41
2022-08-11T17:04:56.802Z,18.54
2022-08-11T17:13:42.093Z,18.51
2022-08-11T17:22:25.467Z,18.43
2022-08-11T17:31:22.343Z,18.46
2022-08-11T17:39:47.242Z,18.44
2022-08-11T17:48:27.077Z,18.25
2022-08-11T17:57:20.259Z,18.10
2022-08-11T18:05:49.307Z,18.10
2022-08-11T18:14:34.779Z,18.07
2022-08-11T18:23:18.346Z,17.97
2022-08-11T18:32:05.541Z,17.83
2022-08-11T18:40:48.603Z,17.71
2022-08-11T18:50:02.135Z,17.61
2022-08-11T18:58:46.508Z,17.53
2022-08-11T19:07:30.424Z,17.40
2022-08-11T19:16:13.823Z,17.16
2022-08-11T19:24:58.478Z,16.87
2022-08-11T19:33:59.881Z,16.63
2022-08-11T19:42:44.967Z,16.57
2022-08-11T19:51:29.313Z,16.49
2022-08-11T20:00:11.205Z,16.34
2022-08-11T20:08:58.517Z,16.26
2022-08-11T20:17:44.899Z,16.19
2022-08-11T20:26:31.092Z,16.12
2022-08-11T20:35:17.419Z,16.07
2022-08-11T20:44:07.841Z,16.04
2022-08-11T20:52:53.322Z,16.07
2022-08-11T21:01:38.353Z,16.04
2022-08-11T21:10:24.417Z,15.99
2022-08-11T21:19:08.592Z,16.05
2022-08-11T21:27:52.492Z,16.10
2022-08-11T21:36:36.369Z,16.09
2022-08-11T21:45:20.024Z,16.15
2022-08-11T21:54:02.677Z,16.21
2022-08-11T22:02:48.947Z,16.21
2022-08-11T22:11:36.962Z,16.23
2022-08-11T22:20:20.579Z,16.34
2022-08-11T22:29:04.169Z,16.38
2022-08-11T22:37:47.711Z,16.45
2022-08-11T22:46:29.584Z,16.50
2022-08-11T22:55:12.544Z,16.42
2022-08-11T23:03:55.641Z,16.30
2022-08-11T23:12:37.520Z,16.20
2022-08-11T23:21:20.564Z,16.03
2022-08-11T23:30:03.924Z,15.91
2022-08-11T23:38:45.585Z,15.85
2022-08-11T23:47:27.894Z,15.80
2022-08-11T23:56:10.535Z,15.78
